Time;durP1;ratioP1;P1;durP2;ratioP2;P2;SDS_P1;SDS_P2;PMS_P1;PMS_P2;Temp;Humidity;BMP_temperature;BMP_pressure;BME280_temperature;BME280_humidity;BME280_pressure;Samples;Min_cycle;Max_cycle;Signal;HPM_P1;HPM_P2
2023/12/08 00:01:34;;;;;;;31.80;16.93;;;;;;;;;;5055021;28;20658;-85
2023/12/08 00:04:38;;;;;;;27.67;15.57;;;;;;;;;;5055208;28;20554;-86
2023/12/08 00:07:43;;;;;;;29.23;15.40;;;;;;;;;;5078386;28;20542;-85
2023/12/08 00:10:47;;;;;;;27.90;16.57;;;;;;;;;;5078574;28;20610;-86
2023/12/08 00:13:52;;;;;;;30.37;16.60;;;;;;;;;;5054512;28;20621;-85
2023/12/08 00:16:56;;;;;;;27.33;15.63;;;;;;;;;;5089099;28;20541;-84
2023/12/08 00:20:00;;;;;;;26.87;15.40;;;;;;;;;;5077614;28;20605;-85
2023/12/08 00:23:06;;;;;;;27.57;14.87;;;;;;;;;;5054568;28;20543;-85
2023/12/08 00:26:10;;;;;;;26.70;15.03;;;;;;;;;;5078074;28;20554;-84
2023/12/08 00:29:14;;;;;;;27.33;16.40;;;;;;;;;;5087961;28;21087;-84
2023/12/08 00:32:18;;;;;;;26.20;15.13;;;;;;;;;;5076167;28;20609;-85
2023/12/08 00:35:22;;;;;;;25.80;14.90;;;;;;;;;;5076453;28;20545;-83
2023/12/08 00:38:27;;;;;;;27.63;15.90;;;;;;;;;;5064470;28;20627;-85
2023/12/08 00:41:31;;;;;;;27.67;15.70;;;;;;;;;;5064778;28;20677;-84
2023/12/08 00:44:35;;;;;;;28.73;15.83;;;;;;;;;;5053272;28;20546;-85
2023/12/08 00:47:39;;;;;;;32.23;15.97;;;;;;;;;;5086818;28;20903;-84
2023/12/08 00:50:43;;;;;;;30.17;15.23;;;;;;;;;;5075560;28;21216;-85
2023/12/08 00:53:48;;;;;;;29.23;15.67;;;;;;;;;;5087584;28;20557;-83
2023/12/08 00:56:52;;;;;;;24.33;15.00;;;;;;;;;;5075838;28;21135;-84
2023/12/08 00:59:57;;;;;;;26.30;14.87;;;;;;;;;;5076513;28;20554;-83
2023/12/08 01:03:01;;;;;;;27.70;15.37;;;;;;;;;;5076575;28;20554;-85
2023/12/08 01:06:06;;;;;;;26.27;14.83;;;;;;;;;;5041338;28;20545;-84
2023/12/08 01:09:10;;;;;;;28.67;15.47;;;;;;;;;;5064144;28;20549;-84
2023/12/08 01:12:14;;;;;;;24.70;14.80;;;;;;;;;;5064257;28;20614;-84
2023/12/08 01:15:18;;;;;;;25.20;14.90;;;;;;;;;;5052452;28;20545;-84
2023/12/08 01:18:23;;;;;;;26.23;14.97;;;;;;;;;;5088206;28;20541;-83
2023/12/08 01:21:27;;;;;;;27.90;15.70;;;;;;;;;;5085704;28;20666;-84
2023/12/08 01:24:32;;;;;;;26.43;14.50;;;;;;;;;;5063023;28;20545;-84
2023/12/08 01:27:36;;;;;;;23.70;14.20;;;;;;;;;;5075329;28;20551;-84
2023/12/08 01:30:40;;;;;;;25.93;14.27;;;;;;;;;;5063496;28;20624;-85
2023/12/08 01:33:47;;;;;;;25.80;14.40;;;;;;;;;;5052621;28;20904;-84
2023/12/08 01:36:51;;;;;;;27.80;14.93;;;;;;;;;;5075360;28;20903;-84
2023/12/08 01:39:55;;;;;;;30.30;14.80;;;;;;;;;;5075737;28;20624;-84
2023/12/08 01:43:00;;;;;;;27.53;14.30;;;;;;;;;;5087084;28;20529;-84
2023/12/08 01:46:06;;;;;;;24.73;14.10;;;;;;;;;;5052008;28;20553;-84
2023/12/08 01:49:10;;;;;;;22.53;14.20;;;;;;;;;;5076001;28;20543;-84
2023/12/08 01:52:21;;;;;;;23.03;13.57;;;;;;;;;;5075125;28;20962;-84
2023/12/08 01:55:26;;;;;;;25.83;13.10;;;;;;;;;;5063750;28;20559;-84
2023/12/08 01:58:30;;;;;;;25.47;13.80;;;;;;;;;;5074837;28;20550;-83
2023/12/08 02:01:35;;;;;;;20.87;13.43;;;;;;;;;;5078066;28;20654;-83
2023/12/08 02:04:43;;;;;;;25.03;13.90;;;;;;;;;;5079634;28;20545;-83
2023/12/08 02:07:48;;;;;;;22.73;13.10;;;;;;;;;;5067394;28;20541;-84
2023/12/08 02:10:53;;;;;;;27.83;14.67;;;;;;;;;;5067073;28;20624;-84
2023/12/08 02:13:57;;;;;;;25.80;13.00;;;;;;;;;;5067762;28;20551;-84
2023/12/08 02:17:16;;;;;;;23.23;13.97;;;;;;;;;;5056006;28;20545;-84
2023/12/08 02:20:20;;;;;;;24.70;13.33;;;;;;;;;;5077931;28;20539;-84
2023/12/08 02:23:25;;;;;;;25.03;13.90;;;;;;;;;;5055601;28;20752;-84
2023/12/08 02:26:29;;;;;;;26.50;14.57;;;;;;;;;;5078667;28;20544;-83
2023/12/08 02:29:33;;;;;;;24.03;13.97;;;;;;;;;;5078799;28;20549;-84
2023/12/08 02:32:42;;;;;;;23.73;14.03;;;;;;;;;;5079291;28;21073;-85
2023/12/08 02:35:47;;;;;;;25.37;14.50;;;;;;;;;;5067241;28;20547;-83
2023/12/08 02:38:52;;;;;;;24.43;14.53;;;;;;;;;;5079174;28;20982;-84
2023/12/08 02:41:57;;;;;;;25.40;14.13;;;;;;;;;;5066639;28;20648;-86
2023/12/08 02:45:03;;;;;;;27.80;15.13;;;;;;;;;;5078435;28;20549;-84
2023/12/08 02:48:07;;;;;;;23.53;14.00;;;;;;;;;;5067192;28;20545;-84
2023/12/08 02:51:11;;;;;;;25.23;14.40;;;;;;;;;;5054729;28;21181;-83
2023/12/08 02:54:15;;;;;;;26.00;14.27;;;;;;;;;;5067516;28;20551;-84
2023/12/08 02:57:20;;;;;;;26.80;15.50;;;;;;;;;;5077802;28;20541;-85
2023/12/08 03:00:24;;;;;;;28.03;15.50;;;;;;;;;;5077464;28;21196;-85
2023/12/08 03:03:28;;;;;;;26.23;16.07;;;;;;;;;;5077992;28;20534;-85
2023/12/08 03:06:32;;;;;;;24.63;14.93;;;;;;;;;;5089286;28;20543;-84
2023/12/08 03:09:36;;;;;;;27.67;15.00;;;;;;;;;;5078404;28;20539;-83
2023/12/08 03:12:41;;;;;;;27.67;15.50;;;;;;;;;;5088790;28;20542;-84
2023/12/08 03:15:46;;;;;;;29.40;16.17;;;;;;;;;;5065775;28;20541;-84
2023/12/08 03:18:50;;;;;;;30.17;17.20;;;;;;;;;;5065602;28;20537;-83
2023/12/08 03:21:55;;;;;;;31.47;16.90;;;;;;;;;;5065432;28;21232;-84
2023/12/08 03:24:59;;;;;;;26.10;15.43;;;;;;;;;;5065733;28;20550;-85
2023/12/08 03:28:03;;;;;;;29.70;16.87;;;;;;;;;;5077823;28;20545;-85
2023/12/08 03:31:20;;;;;;;25.43;15.17;;;;;;;;;;5077290;28;21216;-83
2023/12/08 03:34:24;;;;;;;33.93;17.63;;;;;;;;;;5065267;28;20539;-84
2023/12/08 03:37:28;;;;;;;29.30;15.80;;;;;;;;;;5077369;28;20546;-86
2023/12/08 03:40:32;;;;;;;27.77;16.03;;;;;;;;;;5077626;28;20634;-84
2023/12/08 03:43:40;;;;;;;25.63;14.63;;;;;;;;;;5077072;28;20534;-84
2023/12/08 03:46:46;;;;;;;25.67;15.60;;;;;;;;;;5065679;28;20546;-84
2023/12/08 03:49:50;;;;;;;23.73;15.07;;;;;;;;;;5076605;28;20891;-84
2023/12/08 03:52:55;;;;;;;29.67;16.87;;;;;;;;;;5076537;28;20543;-84
2023/12/08 03:56:00;;;;;;;28.17;15.43;;;;;;;;;;5077121;28;20559;-84
2023/12/08 03:59:03;;;;;;;28.87;15.80;;;;;;;;;;5076652;28;20543;-84
2023/12/08 04:02:08;;;;;;;26.43;14.40;;;;;;;;;;5076885;28;20658;-85
2023/12/08 04:05:13;;;;;;;25.87;14.50;;;;;;;;;;5088597;28;20541;-84
2023/12/08 04:08:17;;;;;;;29.60;15.63;;;;;;;;;;5065766;28;20545;-84
2023/12/08 04:11:21;;;;;;;31.63;15.67;;;;;;;;;;5075740;28;20620;-84
2023/12/08 04:14:25;;;;;;;27.07;15.33;;;;;;;;;;5077298;28;20559;-85
2023/12/08 04:17:29;;;;;;;23.13;14.00;;;;;;;;;;5076293;28;20541;-85
2023/12/08 04:20:35;;;;;;;28.10;15.43;;;;;;;;;;5077084;28;20640;-85
2023/12/08 04:23:39;;;;;;;27.67;16.20;;;;;;;;;;5052705;28;20538;-82
2023/12/08 04:26:44;;;;;;;26.73;15.53;;;;;;;;;;5053432;28;20550;-84
2023/12/08 04:29:47;;;;;;;28.47;15.77;;;;;;;;;;5077189;28;20541;-84
2023/12/08 04:32:52;;;;;;;26.67;15.17;;;;;;;;;;5053102;28;20537;-83
2023/12/08 04:35:56;;;;;;;30.33;15.00;;;;;;;;;;5064382;28;20549;-85
2023/12/08 04:39:00;;;;;;;24.20;14.37;;;;;;;;;;5064868;28;20617;-83
2023/12/08 04:42:04;;;;;;;25.03;14.73;;;;;;;;;;5081507;28;20652;-86
2023/12/08 04:45:09;;;;;;;26.13;14.63;;;;;;;;;;5057998;28;20559;-86
2023/12/08 04:48:13;;;;;;;26.47;14.30;;;;;;;;;;5068141;28;20546;-86
2023/12/08 04:51:18;;;;;;;29.10;15.57;;;;;;;;;;5067077;28;20628;-86
2023/12/08 04:54:22;;;;;;;25.27;14.37;;;;;;;;;;5068093;28;20549;-86
2023/12/08 04:57:26;;;;;;;24.97;14.77;;;;;;;;;;5092265;28;20907;-86
2023/12/08 05:00:31;;;;;;;25.07;14.50;;;;;;;;;;5068911;28;21202;-86
2023/12/08 05:03:35;;;;;;;25.77;14.67;;;;;;;;;;5068391;28;20551;-86
2023/12/08 05:06:39;;;;;;;24.43;14.47;;;;;;;;;;5078368;28;21093;-84
2023/12/08 05:09:44;;;;;;;22.43;13.63;;;;;;;;;;5078481;28;20550;-84
2023/12/08 05:12:48;;;;;;;25.40;13.47;;;;;;;;;;5077907;28;20547;-84
2023/12/08 05:15:52;;;;;;;24.63;14.20;;;;;;;;;;5078558;28;20579;-84
2023/12/08 05:18:56;;;;;;;27.60;14.13;;;;;;;;;;5090066;28;20545;-84
2023/12/08 05:22:03;;;;;;;25.83;13.93;;;;;;;;;;5056409;28;20653;-86
2023/12/08 05:25:09;;;;;;;22.23;13.70;;;;;;;;;;5085344;28;20554;-86
2023/12/08 05:28:12;;;;;;;26.13;14.50;;;;;;;;;;5073027;28;21102;-85
2023/12/08 05:31:18;;;;;;;23.63;13.70;;;;;;;;;;5085458;28;20628;-86
2023/12/08 05:34:22;;;;;;;22.03;13.63;;;;;;;;;;5074066;28;20549;-86
2023/12/08 05:37:26;;;;;;;23.03;13.90;;;;;;;;;;5062144;28;20556;-84
2023/12/08 05:40:31;;;;;;;22.87;13.30;;;;;;;;;;5085459;28;20631;-84
2023/12/08 05:43:35;;;;;;;21.73;12.70;;;;;;;;;;5073880;28;20596;-84
2023/12/08 05:46:39;;;;;;;23.67;13.30;;;;;;;;;;5086104;28;20546;-85
2023/12/08 05:49:44;;;;;;;22.53;13.10;;;;;;;;;;5086136;28;20549;-86
2023/12/08 05:52:48;;;;;;;22.17;13.10;;;;;;;;;;5073890;28;20554;-86
2023/12/08 05:55:53;;;;;;;22.83;13.13;;;;;;;;;;5085777;28;20553;-86
2023/12/08 05:58:57;;;;;;;22.70;13.87;;;;;;;;;;5085389;28;21088;-86
2023/12/08 06:02:01;;;;;;;22.50;12.83;;;;;;;;;;5085146;28;20656;-85
2023/12/08 06:05:06;;;;;;;17.80;9.53;;;;;;;;;;5097230;28;20537;-85
2023/12/08 06:08:10;;;;;;;22.33;12.57;;;;;;;;;;5064124;28;20526;-88
2023/12/08 06:11:14;;;;;;;24.33;14.27;;;;;;;;;;5061221;28;20616;-86
2023/12/08 06:14:18;;;;;;;21.57;13.27;;;;;;;;;;5072005;28;20534;-86
2023/12/08 06:17:23;;;;;;;20.23;12.50;;;;;;;;;;5084601;28;20549;-85
2023/12/08 06:20:27;;;;;;;19.63;12.43;;;;;;;;;;5060622;28;20621;-86
2023/12/08 06:23:31;;;;;;;19.90;12.07;;;;;;;;;;5060822;28;20592;-85
2023/12/08 06:26:39;;;;;;;21.93;13.17;;;;;;;;;;5072891;28;20554;-84
2023/12/08 06:29:43;;;;;;;23.13;13.00;;;;;;;;;;5084553;28;20534;-85
2023/12/08 06:32:47;;;;;;;20.17;11.93;;;;;;;;;;5083321;28;20878;-83
2023/12/08 06:35:51;;;;;;;23.10;13.53;;;;;;;;;;5071358;28;20566;-84
2023/12/08 06:38:55;;;;;;;22.17;12.63;;;;;;;;;;5082455;28;20612;-83
2023/12/08 06:42:00;;;;;;;20.60;12.97;;;;;;;;;;5071284;28;21030;-82
2023/12/08 06:45:05;;;;;;;21.43;12.77;;;;;;;;;;5085286;28;20561;-82
2023/12/08 06:48:09;;;;;;;40.07;21.20;;;;;;;;;;5062568;28;20552;-85
2023/12/08 06:51:16;;;;;;;91.87;49.33;;;;;;;;;;5064204;28;20614;-83
2023/12/08 06:54:21;;;;;;;31.00;18.90;;;;;;;;;;5073817;28;20546;-83
2023/12/08 06:57:25;;;;;;;27.50;14.83;;;;;;;;;;5095052;28;20567;-83
2023/12/08 07:00:29;;;;;;;21.97;13.50;;;;;;;;;;5061958;28;20616;-83
2023/12/08 07:03:33;;;;;;;22.83;13.83;;;;;;;;;;5073835;28;20613;-82
2023/12/08 07:06:38;;;;;;;21.77;13.00;;;;;;;;;;5073750;28;20557;-83
2023/12/08 07:09:42;;;;;;;22.60;12.53;;;;;;;;;;5086374;28;20558;-82
2023/12/08 07:12:46;;;;;;;22.13;13.10;;;;;;;;;;5074182;28;20550;-82
2023/12/08 07:15:51;;;;;;;22.40;12.97;;;;;;;;;;5084045;28;20538;-84
2023/12/08 07:18:55;;;;;;;21.07;13.40;;;;;;;;;;5076795;28;20553;-83
2023/12/08 07:21:59;;;;;;;21.30;13.10;;;;;;;;;;5084682;28;20625;-83
2023/12/08 07:25:07;;;;;;;21.50;12.70;;;;;;;;;;5072083;28;20541;-83
2023/12/08 07:28:12;;;;;;;21.43;12.47;;;;;;;;;;5061076;28;20557;-83
2023/12/08 07:31:17;;;;;;;22.80;13.00;;;;;;;;;;5061196;28;20625;-81
2023/12/08 07:34:23;;;;;;;22.57;12.60;;;;;;;;;;5082857;28;20541;-83
2023/12/08 07:37:27;;;;;;;21.20;11.37;;;;;;;;;;5083082;28;20542;-82
2023/12/08 07:40:33;;;;;;;23.07;13.40;;;;;;;;;;5084033;28;20628;-83
2023/12/08 07:43:38;;;;;;;24.23;12.97;;;;;;;;;;5084423;28;20594;-83
2023/12/08 07:46:42;;;;;;;21.60;13.97;;;;;;;;;;5050661;28;20561;-83
2023/12/08 07:49:46;;;;;;;24.57;14.37;;;;;;;;;;5072013;28;20549;-83
2023/12/08 07:52:57;;;;;;;22.50;13.00;;;;;;;;;;5074295;28;20561;-82
2023/12/08 07:56:02;;;;;;;25.00;13.23;;;;;;;;;;5083621;28;20546;-82
2023/12/08 07:59:07;;;;;;;23.73;14.10;;;;;;;;;;5072241;28;20582;-83
2023/12/08 08:02:12;;;;;;;26.60;14.77;;;;;;;;;;5073687;28;20616;-82
2023/12/08 08:05:16;;;;;;;21.70;13.43;;;;;;;;;;5051008;28;20542;-82
2023/12/08 08:08:24;;;;;;;21.10;13.07;;;;;;;;;;5071520;28;20547;-82
2023/12/08 08:11:28;;;;;;;21.63;13.13;;;;;;;;;;5048332;28;20626;-82
2023/12/08 08:14:33;;;;;;;25.20;14.43;;;;;;;;;;5060363;28;20543;-81
2023/12/08 08:17:37;;;;;;;25.90;14.87;;;;;;;;;;5057060;28;20543;-82
2023/12/08 08:20:41;;;;;;;23.10;13.90;;;;;;;;;;5069477;28;20636;-83
2023/12/08 08:23:46;;;;;;;22.70;14.00;;;;;;;;;;5058818;28;20605;-83
2023/12/08 08:26:50;;;;;;;27.27;14.30;;;;;;;;;;5071062;28;20540;-82
2023/12/08 08:29:54;;;;;;;25.60;15.27;;;;;;;;;;5071133;28;21077;-85
2023/12/08 08:32:59;;;;;;;23.43;14.17;;;;;;;;;;5069145;28;20551;-83
2023/12/08 08:36:05;;;;;;;21.63;13.43;;;;;;;;;;5057230;28;20548;-81
2023/12/08 08:39:10;;;;;;;22.13;13.20;;;;;;;;;;5090246;28;20624;-82
2023/12/08 08:42:14;;;;;;;24.57;14.17;;;;;;;;;;5077522;28;20632;-82
2023/12/08 08:45:19;;;;;;;25.13;15.00;;;;;;;;;;5076511;28;20543;-84
2023/12/08 08:48:23;;;;;;;23.00;13.87;;;;;;;;;;5076859;28;20553;-83
2023/12/08 08:51:27;;;;;;;23.30;14.07;;;;;;;;;;5076160;28;20626;-82
2023/12/08 08:54:31;;;;;;;22.93;13.93;;;;;;;;;;5077100;28;20538;-82
2023/12/08 08:57:36;;;;;;;22.80;13.03;;;;;;;;;;5077278;28;20534;-81
2023/12/08 09:00:40;;;;;;;20.97;12.90;;;;;;;;;;5075972;28;20622;-83
2023/12/08 09:03:45;;;;;;;23.83;13.73;;;;;;;;;;5077008;28;20598;-82
2023/12/08 09:06:49;;;;;;;22.67;12.87;;;;;;;;;;5076985;28;20577;-82
2023/12/08 09:09:53;;;;;;;23.77;14.20;;;;;;;;;;5077519;28;20538;-83
2023/12/08 09:12:57;;;;;;;30.07;14.33;;;;;;;;;;5090548;28;20538;-83
2023/12/08 09:16:02;;;;;;;25.37;14.63;;;;;;;;;;5058223;28;20538;-81
2023/12/08 09:19:06;;;;;;;20.93;12.90;;;;;;;;;;5059598;28;20558;-82
2023/12/08 09:22:11;;;;;;;23.80;13.93;;;;;;;;;;5054805;28;20605;-82
2023/12/08 09:25:18;;;;;;;21.60;12.57;;;;;;;;;;5091399;28;20523;-83
2023/12/08 09:28:22;;;;;;;23.00;13.43;;;;;;;;;;5068400;28;20558;-82
2023/12/08 09:31:26;;;;;;;23.23;13.33;;;;;;;;;;5056357;28;21193;-83
2023/12/08 09:34:30;;;;;;;22.10;12.97;;;;;;;;;;5056022;28;20551;-86
2023/12/08 09:37:35;;;;;;;22.20;13.20;;;;;;;;;;5065695;28;20534;-82
2023/12/08 09:40:41;;;;;;;24.53;14.43;;;;;;;;;;5053791;28;20622;-82
2023/12/08 09:43:59;;;;;;;22.00;13.60;;;;;;;;;;5076043;28;20602;-81
2023/12/08 09:47:06;;;;;;;23.33;13.17;;;;;;;;;;5043681;28;20542;-81
2023/12/08 09:50:12;;;;;;;21.33;13.30;;;;;;;;;;5089097;28;20542;-83
2023/12/08 09:53:16;;;;;;;25.57;13.40;;;;;;;;;;5054418;28;20542;-83
2023/12/08 09:56:21;;;;;;;23.03;13.87;;;;;;;;;;5042756;28;20530;-85
2023/12/08 09:59:29;;;;;;;24.50;14.00;;;;;;;;;;5044945;28;20546;-81
2023/12/08 10:02:33;;;;;;;22.07;13.43;;;;;;;;;;5054733;28;20876;-81
2023/12/08 10:05:37;;;;;;;23.97;14.37;;;;;;;;;;5079175;28;20550;-82
2023/12/08 10:08:42;;;;;;;22.13;14.07;;;;;;;;;;5068369;28;20534;-82
2023/12/08 10:11:46;;;;;;;21.97;13.93;;;;;;;;;;5078976;28;20613;-82
2023/12/08 10:14:52;;;;;;;21.40;13.53;;;;;;;;;;5079327;28;20538;-82
2023/12/08 10:17:56;;;;;;;22.63;13.87;;;;;;;;;;5065645;28;20543;-82
2023/12/08 10:21:27;;;;;;;20.40;14.10;;;;;;;;;;5067675;28;20621;-82
2023/12/08 10:24:31;;;;;;;21.10;13.03;;;;;;;;;;5092601;28;20585;-83
2023/12/08 10:27:35;;;;;;;21.93;14.23;;;;;;;;;;5082279;28;20541;-83
2023/12/08 10:30:48;;;;;;;21.20;13.03;;;;;;;;;;5081440;28;20621;-81
2023/12/08 10:33:52;;;;;;;21.20;14.30;;;;;;;;;;5081327;28;20171;-83
2023/12/08 10:36:57;;;;;;;22.80;13.87;;;;;;;;;;5080498;28;20553;-82
2023/12/08 10:40:01;;;;;;;20.40;13.17;;;;;;;;;;5080852;28;20199;-81
2023/12/08 10:43:06;;;;;;;22.07;13.63;;;;;;;;;;5072622;28;20207;-82
2023/12/08 10:46:11;;;;;;;20.20;13.17;;;;;;;;;;5080086;28;20513;-86
2023/12/08 10:49:21;;;;;;;27.53;14.23;;;;;;;;;;5070912;28;20184;-84
2023/12/08 10:52:30;;;;;;;23.60;13.20;;;;;;;;;;5078894;28;20219;-85
2023/12/08 10:55:34;;;;;;;22.10;13.07;;;;;;;;;;5067586;28;20542;-82
2023/12/08 10:58:42;;;;;;;22.07;13.70;;;;;;;;;;5055344;28;20175;-81
2023/12/08 11:01:48;;;;;;;21.50;13.20;;;;;;;;;;5079809;28;20688;-83
2023/12/08 11:04:58;;;;;;;22.97;13.83;;;;;;;;;;5067489;28;20207;-82
2023/12/08 11:08:05;;;;;;;23.47;14.17;;;;;;;;;;5079634;28;20171;-81
2023/12/08 11:11:11;;;;;;;21.83;13.77;;;;;;;;;;5079015;28;20557;-81
2023/12/08 11:14:32;;;;;;;20.77;13.70;;;;;;;;;;5079265;28;20175;-82
2023/12/08 11:17:59;;;;;;;22.27;13.67;;;;;;;;;;5066351;28;20176;-81
2023/12/08 11:21:10;;;;;;;21.87;13.93;;;;;;;;;;5078091;28;20211;-81
2023/12/08 11:24:14;;;;;;;20.37;14.07;;;;;;;;;;5066655;28;20211;-82
2023/12/08 11:27:32;;;;;;;22.13;13.20;;;;;;;;;;5079211;28;20180;-82
2023/12/08 11:31:06;;;;;;;19.73;12.70;;;;;;;;;;5055304;28;20215;-82
2023/12/08 11:34:16;;;;;;;19.40;13.83;;;;;;;;;;5055307;28;20179;-81
2023/12/08 11:37:22;;;;;;;22.60;13.27;;;;;;;;;;5078432;28;20529;-81
2023/12/08 11:40:26;;;;;;;21.00;13.23;;;;;;;;;;5079121;28;20219;-82
2023/12/08 11:43:31;;;;;;;21.57;13.57;;;;;;;;;;5079893;28;20207;-83
2023/12/08 11:46:35;;;;;;;19.73;13.57;;;;;;;;;;5090023;28;20184;-81
2023/12/08 11:49:42;;;;;;;21.43;14.20;;;;;;;;;;5077891;28;20188;-81
2023/12/08 11:52:48;;;;;;;20.97;13.03;;;;;;;;;;5079653;28;20180;-81
2023/12/08 11:55:54;;;;;;;22.50;13.47;;;;;;;;;;5079431;28;20176;-83
2023/12/08 11:58:59;;;;;;;21.47;13.37;;;;;;;;;;5078804;28;20179;-81
2023/12/08 12:02:04;;;;;;;24.07;13.57;;;;;;;;;;5079433;28;20215;-82
2023/12/08 12:05:09;;;;;;;22.53;13.67;;;;;;;;;;5078035;28;20206;-82
2023/12/08 12:08:14;;;;;;;21.27;14.13;;;;;;;;;;5067287;28;20179;-82
2023/12/08 12:11:21;;;;;;;20.83;13.50;;;;;;;;;;5077861;28;20215;-81
2023/12/08 12:14:26;;;;;;;21.20;13.27;;;;;;;;;;5056258;28;20171;-81
2023/12/08 12:17:30;;;;;;;26.43;15.00;;;;;;;;;;5067118;28;20179;-82
2023/12/08 12:20:36;;;;;;;20.57;13.87;;;;;;;;;;5089094;28;20211;-81
2023/12/08 12:23:40;;;;;;;22.93;14.77;;;;;;;;;;5078823;28;20257;-82
2023/12/08 12:26:44;;;;;;;20.67;14.27;;;;;;;;;;5079296;28;20175;-82
2023/12/08 12:29:49;;;;;;;21.90;13.93;;;;;;;;;;5089785;28;20530;-81
2023/12/08 12:32:53;;;;;;;25.57;14.43;;;;;;;;;;5078788;28;20184;-82
2023/12/08 12:35:57;;;;;;;22.47;14.60;;;;;;;;;;5066968;28;20171;-81
2023/12/08 12:39:03;;;;;;;19.93;12.97;;;;;;;;;;5066449;28;20211;-82
2023/12/08 12:42:07;;;;;;;21.50;14.17;;;;;;;;;;5066293;28;20215;-81
2023/12/08 12:45:25;;;;;;;21.77;14.20;;;;;;;;;;5078980;28;20671;-81
2023/12/08 12:48:29;;;;;;;22.30;14.30;;;;;;;;;;5089797;28;20175;-81
2023/12/08 12:51:35;;;;;;;22.80;14.53;;;;;;;;;;5066733;28;20215;-81
2023/12/08 12:54:42;;;;;;;22.23;15.10;;;;;;;;;;5089534;28;20176;-82
2023/12/08 12:57:49;;;;;;;21.23;14.87;;;;;;;;;;5055196;28;20175;-82
2023/12/08 13:00:54;;;;;;;22.83;15.37;;;;;;;;;;5089558;28;20215;-81
2023/12/08 13:04:00;;;;;;;23.60;15.23;;;;;;;;;;5078646;28;20212;-83
2023/12/08 13:07:13;;;;;;;24.97;15.83;;;;;;;;;;5066032;28;20183;-81
2023/12/08 13:10:18;;;;;;;24.73;15.17;;;;;;;;;;5077223;28;20172;-81
2023/12/08 13:13:22;;;;;;;26.13;16.20;;;;;;;;;;5077343;28;20183;-81
2023/12/08 13:16:26;;;;;;;22.30;14.77;;;;;;;;;;5077720;28;20179;-81
2023/12/08 13:19:30;;;;;;;25.70;15.93;;;;;;;;;;5066816;28;20179;-82
2023/12/08 13:22:34;;;;;;;25.73;16.73;;;;;;;;;;5054767;28;20176;-82
2023/12/08 13:25:39;;;;;;;23.43;15.07;;;;;;;;;;5078205;28;20215;-83
2023/12/08 13:28:43;;;;;;;25.50;15.87;;;;;;;;;;5078811;28;20631;-81
2023/12/08 13:31:47;;;;;;;25.77;15.87;;;;;;;;;;5077676;28;20210;-81
2023/12/08 13:34:51;;;;;;;29.13;17.33;;;;;;;;;;5054333;28;20179;-81
2023/12/08 13:37:55;;;;;;;27.67;16.20;;;;;;;;;;5077418;28;20195;-82
2023/12/08 13:41:00;;;;;;;27.73;17.17;;;;;;;;;;5088624;28;20211;-82
2023/12/08 13:44:04;;;;;;;24.97;15.33;;;;;;;;;;5078108;28;20211;-82
2023/12/08 13:47:09;;;;;;;26.37;16.60;;;;;;;;;;5077121;28;20183;-82
2023/12/08 13:50:13;;;;;;;26.43;16.07;;;;;;;;;;5076942;28;20521;-82
2023/12/08 13:53:17;;;;;;;26.10;16.87;;;;;;;;;;5077205;28;20183;-83
2023/12/08 13:56:21;;;;;;;31.77;18.93;;;;;;;;;;5080455;28;20175;-81
2023/12/08 13:59:25;;;;;;;24.47;16.43;;;;;;;;;;5058011;28;20183;-83
2023/12/08 14:02:29;;;;;;;27.93;16.90;;;;;;;;;;5080279;28;20214;-81
2023/12/08 14:05:34;;;;;;;26.53;17.73;;;;;;;;;;5083873;28;20211;-81
2023/12/08 14:08:38;;;;;;;23.37;16.13;;;;;;;;;;5059766;28;20183;-81
2023/12/08 14:11:42;;;;;;;28.50;16.53;;;;;;;;;;5080652;28;20219;-82
2023/12/08 14:14:46;;;;;;;29.30;16.80;;;;;;;;;;5069465;28;20176;-81
2023/12/08 14:17:51;;;;;;;27.60;17.03;;;;;;;;;;5083003;28;20183;-81
2023/12/08 14:20:55;;;;;;;27.33;17.20;;;;;;;;;;5081629;28;20215;-81
2023/12/08 14:24:00;;;;;;;29.03;17.60;;;;;;;;;;5069383;28;20184;-82
2023/12/08 14:27:04;;;;;;;28.03;18.33;;;;;;;;;;5081526;28;20183;-82
2023/12/08 14:30:11;;;;;;;26.93;18.07;;;;;;;;;;5081097;28;20183;-81
2023/12/08 14:33:17;;;;;;;29.10;17.60;;;;;;;;;;5080784;28;20175;-82
2023/12/08 14:36:21;;;;;;;29.93;18.07;;;;;;;;;;5069108;28;20172;-81
2023/12/08 14:39:26;;;;;;;29.97;18.00;;;;;;;;;;5092450;28;20211;-82
2023/12/08 14:42:30;;;;;;;28.13;17.97;;;;;;;;;;5080105;28;20219;-82
2023/12/08 14:45:34;;;;;;;29.23;18.53;;;;;;;;;;5081653;28;20233;-82
2023/12/08 14:48:38;;;;;;;30.60;18.40;;;;;;;;;;5069508;28;20175;-82
2023/12/08 14:51:43;;;;;;;31.17;19.90;;;;;;;;;;5082316;28;20222;-81
2023/12/08 14:54:48;;;;;;;32.00;19.60;;;;;;;;;;5080964;28;20175;-81
2023/12/08 14:57:52;;;;;;;33.10;19.50;;;;;;;;;;5081608;28;20179;-83
2023/12/08 15:00:56;;;;;;;35.70;20.50;;;;;;;;;;5069397;28;20214;-82
2023/12/08 15:04:02;;;;;;;33.57;19.87;;;;;;;;;;5082137;28;20180;-81
2023/12/08 15:07:06;;;;;;;31.50;18.93;;;;;;;;;;5068276;28;20621;-81
2023/12/08 15:10:11;;;;;;;34.03;19.97;;;;;;;;;;5069308;28;20534;-81
2023/12/08 15:13:17;;;;;;;33.10;20.20;;;;;;;;;;5069654;28;20539;-80
2023/12/08 15:16:21;;;;;;;33.97;20.47;;;;;;;;;;5069658;28;21070;-81
2023/12/08 15:19:28;;;;;;;33.87;21.53;;;;;;;;;;5057677;28;20179;-82
2023/12/08 15:22:36;;;;;;;34.53;20.97;;;;;;;;;;5081237;28;20554;-82
2023/12/08 15:25:40;;;;;;;37.07;21.93;;;;;;;;;;5056255;28;20590;-81
2023/12/08 15:28:45;;;;;;;34.17;20.17;;;;;;;;;;5080369;28;20179;-80
2023/12/08 15:31:48;;;;;;;34.07;20.83;;;;;;;;;;5067937;28;20207;-80
2023/12/08 15:34:53;;;;;;;36.97;21.07;;;;;;;;;;5056759;28;20180;-81
2023/12/08 15:37:57;;;;;;;35.57;20.50;;;;;;;;;;5080715;28;20609;-80
2023/12/08 15:41:02;;;;;;;33.50;19.57;;;;;;;;;;5091963;28;20609;-81
2023/12/08 15:44:06;;;;;;;38.70;21.17;;;;;;;;;;5091671;28;20538;-81
2023/12/08 15:47:10;;;;;;;36.80;20.53;;;;;;;;;;5091133;28;20530;-81
2023/12/08 15:50:14;;;;;;;34.30;21.47;;;;;;;;;;5080517;28;21078;-81
2023/12/08 15:53:19;;;;;;;33.43;20.40;;;;;;;;;;5079935;28;20542;-81
2023/12/08 15:56:23;;;;;;;37.37;21.80;;;;;;;;;;5056480;28;20555;-81
2023/12/08 15:59:27;;;;;;;38.67;21.07;;;;;;;;;;5056238;28;20538;-80
2023/12/08 16:02:31;;;;;;;38.20;22.53;;;;;;;;;;5079916;28;20618;-80
2023/12/08 16:05:35;;;;;;;34.87;20.30;;;;;;;;;;5068137;28;20609;-83
2023/12/08 16:08:42;;;;;;;36.17;20.67;;;;;;;;;;5055985;28;20542;-84
2023/12/08 16:11:47;;;;;;;41.60;22.37;;;;;;;;;;5079208;28;20621;-83
2023/12/08 16:14:51;;;;;;;40.60;22.00;;;;;;;;;;5055771;28;20534;-82
2023/12/08 16:17:56;;;;;;;39.57;22.43;;;;;;;;;;5078876;28;20538;-81
2023/12/08 16:21:01;;;;;;;42.40;21.87;;;;;;;;;;5090697;28;20622;-83
2023/12/08 16:24:06;;;;;;;36.60;20.90;;;;;;;;;;5079822;28;20543;-82
2023/12/08 16:27:10;;;;;;;37.87;20.90;;;;;;;;;;5067056;28;20538;-83
2023/12/08 16:30:14;;;;;;;39.53;20.90;;;;;;;;;;5078957;28;20880;-82
2023/12/08 16:33:18;;;;;;;34.47;20.20;;;;;;;;;;5090574;28;20542;-82
2023/12/08 16:36:23;;;;;;;42.90;22.50;;;;;;;;;;5079420;28;20554;-82
2023/12/08 16:39:28;;;;;;;43.40;21.23;;;;;;;;;;5079072;28;20617;-82
2023/12/08 16:42:32;;;;;;;35.97;20.77;;;;;;;;;;5080255;28;20609;-81
2023/12/08 16:45:36;;;;;;;39.10;21.20;;;;;;;;;;5066651;28;21121;-82
2023/12/08 16:48:40;;;;;;;38.03;21.07;;;;;;;;;;5090720;28;20538;-81
2023/12/08 16:51:44;;;;;;;44.13;22.27;;;;;;;;;;5077805;28;20605;-81
2023/12/08 16:54:48;;;;;;;38.27;20.57;;;;;;;;;;5054327;28;20539;-81
2023/12/08 16:57:53;;;;;;;43.87;21.30;;;;;;;;;;5077809;28;20534;-81
2023/12/08 17:00:57;;;;;;;39.30;21.00;;;;;;;;;;5065740;28;21169;-81
2023/12/08 17:04:01;;;;;;;37.53;20.27;;;;;;;;;;5065736;28;20534;-83
2023/12/08 17:07:05;;;;;;;33.37;19.33;;;;;;;;;;5055062;28;20538;-81
2023/12/08 17:10:09;;;;;;;41.70;21.27;;;;;;;;;;5078502;28;20539;-84
2023/12/08 17:13:14;;;;;;;40.90;19.63;;;;;;;;;;5043818;28;20538;-84
2023/12/08 17:16:19;;;;;;;36.23;20.70;;;;;;;;;;5078219;28;21110;-82
2023/12/08 17:19:24;;;;;;;35.47;19.40;;;;;;;;;;5079507;28;20550;-83
2023/12/08 17:22:28;;;;;;;37.13;19.83;;;;;;;;;;5089153;28;20617;-82
2023/12/08 17:25:32;;;;;;;35.73;19.47;;;;;;;;;;5076797;28;20589;-83
2023/12/08 17:28:36;;;;;;;35.87;20.57;;;;;;;;;;5065083;28;20538;-81
2023/12/08 17:31:41;;;;;;;29.87;18.63;;;;;;;;;;5087170;28;20617;-83
2023/12/08 17:34:45;;;;;;;34.30;19.83;;;;;;;;;;5076836;28;20542;-83
2023/12/08 17:37:49;;;;;;;34.13;20.23;;;;;;;;;;5077204;28;20593;-83
2023/12/08 17:40:56;;;;;;;31.07;19.53;;;;;;;;;;5044685;28;20722;-82
2023/12/08 17:44:00;;;;;;;30.93;18.20;;;;;;;;;;5056924;28;20542;-83
2023/12/08 17:47:05;;;;;;;34.33;19.37;;;;;;;;;;5068134;28;20594;-82
2023/12/08 17:50:10;;;;;;;32.53;18.87;;;;;;;;;;5044234;28;20543;-82
2023/12/08 17:53:14;;;;;;;33.57;19.83;;;;;;;;;;5044310;28;20539;-83
2023/12/08 17:56:18;;;;;;;30.50;19.03;;;;;;;;;;5056136;28;20176;-83